MXY739 KPWM-KMCO
Flight info
| Callsign | MXY739 |
|---|---|
| Flight time | 2h 35m |
| Altitude | 40000 |
| Route | NUBLE4 CCC Q97 SAWED MOXXY Q85 LPERD GTOUT1 |
| Aircraft | E190/M-SDE3GILORVW/S |
Departure
| Time | 2026-04-24 01:15 |
|---|---|
| Airport | Portland International Jetport (KPWM) |
Arrival
| Time | 2026-04-24 03:51 |
|---|---|
| Airport | Orlando International Airport (KMCO) |
| Time | Latitude | Longitude | Altitude | Speed | Heading |
|---|---|---|---|---|---|
| 2026-04-24 01:00 | 43.64675 | -70.31054 | 60 ft | 0 kts | 5° |
| 2026-04-24 01:08 | 43.64664 | -70.31055 | 60 ft | 2 kts | 5° |
| 2026-04-24 01:08 | 43.64650 | -70.31057 | 60 ft | 2 kts | 5° |
| 2026-04-24 01:08 | 43.64634 | -70.31059 | 60 ft | 2 kts | 5° |
| 2026-04-24 01:09 | 43.64619 | -70.31061 | 60 ft | 2 kts | 19° |
| 2026-04-24 01:09 | 43.64607 | -70.31072 | 60 ft | 2 kts | 44° |
| 2026-04-24 01:09 | 43.64597 | -70.31089 | 60 ft | 2 kts | 70° |
| 2026-04-24 01:09 | 43.64595 | -70.31108 | 60 ft | 0 kts | 92° |
| 2026-04-24 01:10 | 43.64595 | -70.31117 | 60 ft | 1 kts | 96° |
| 2026-04-24 01:10 | 43.64595 | -70.31119 | 60 ft | 0 kts | 96° |
| 2026-04-24 01:11 | 43.64594 | -70.31069 | 60 ft | 11 kts | 91° |
| 2026-04-24 01:12 | 43.64585 | -70.30955 | 60 ft | 12 kts | 95° |
| 2026-04-24 01:12 | 43.64576 | -70.30830 | 60 ft | 14 kts | 96° |
| 2026-04-24 01:12 | 43.64566 | -70.30675 | 60 ft | 17 kts | 96° |
| 2026-04-24 01:12 | 43.64556 | -70.30504 | 60 ft | 18 kts | 93° |
| 2026-04-24 01:13 | 43.64543 | -70.30331 | 60 ft | 18 kts | 96° |
| 2026-04-24 01:13 | 43.64531 | -70.30159 | 60 ft | 18 kts | 95° |
| 2026-04-24 01:13 | 43.64521 | -70.29993 | 60 ft | 10 kts | 95° |
| 2026-04-24 01:13 | 43.64491 | -70.29925 | 60 ft | 8 kts | 156° |
| 2026-04-24 01:14 | 43.64432 | -70.29926 | 60 ft | 8 kts | 210° |
| 2026-04-24 01:14 | 43.64410 | -70.29994 | 60 ft | 8 kts | 275° |
| 2026-04-24 01:14 | 43.64414 | -70.30047 | 60 ft | 2 kts | 275° |
| 2026-04-24 01:14 | 43.64415 | -70.30070 | 60 ft | 3 kts | 275° |
| 2026-04-24 01:15 | 43.64424 | -70.30194 | 60 ft | 38 kts | 276° |
| 2026-04-24 01:15 | 43.64481 | -70.30957 | 60 ft | 119 kts | 276° |
| 2026-04-24 01:15 | 43.64573 | -70.32397 | 161 ft | 170 kts | 278° |
| 2026-04-24 01:15 | 43.64467 | -70.33980 | 943 ft | 178 kts | 245° |
| 2026-04-24 01:16 | 43.63633 | -70.35425 | 1414 ft | 210 kts | 232° |
| 2026-04-24 01:16 | 43.62637 | -70.36938 | 2200 ft | 218 kts | 232° |
| 2026-04-24 01:16 | 43.61565 | -70.38489 | 2845 ft | 238 kts | 230° |
| 2026-04-24 01:16 | 43.60465 | -70.40296 | 3631 ft | 249 kts | 238° |
| 2026-04-24 01:17 | 43.59422 | -70.42210 | 4595 ft | 255 kts | 239° |
| 2026-04-24 01:17 | 43.58374 | -70.44212 | 5454 ft | 265 kts | 241° |
| 2026-04-24 01:17 | 43.57349 | -70.46353 | 6258 ft | 275 kts | 244° |
| 2026-04-24 01:17 | 43.56321 | -70.48620 | 7122 ft | 283 kts | 244° |
| 2026-04-24 01:18 | 43.55235 | -70.50897 | 8100 ft | 288 kts | 241° |
| 2026-04-24 01:18 | 43.54206 | -70.53151 | 9215 ft | 282 kts | 245° |
| 2026-04-24 01:18 | 43.52957 | -70.55276 | 10109 ft | 294 kts | 231° |
| 2026-04-24 01:18 | 43.51335 | -70.56999 | 10998 ft | 307 kts | 215° |
| 2026-04-24 01:19 | 43.49207 | -70.57961 | 11545 ft | 332 kts | 198° |
| 2026-04-24 01:19 | 43.46957 | -70.58723 | 12335 ft | 331 kts | 209° |
| 2026-04-24 01:19 | 43.44807 | -70.59932 | 12918 ft | 343 kts | 208° |
| 2026-04-24 01:19 | 43.42536 | -70.61008 | 13600 ft | 353 kts | 206° |
| 2026-04-24 01:20 | 43.40168 | -70.62032 | 14317 ft | 360 kts | 206° |
| 2026-04-24 01:20 | 43.37738 | -70.63046 | 15007 ft | 367 kts | 206° |
| 2026-04-24 01:20 | 43.35308 | -70.64043 | 15697 ft | 372 kts | 207° |
| 2026-04-24 01:20 | 43.32786 | -70.65076 | 16351 ft | 379 kts | 207° |
| 2026-04-24 01:21 | 43.30281 | -70.66097 | 16998 ft | 385 kts | 208° |
| 2026-04-24 01:21 | 43.27697 | -70.67149 | 17657 ft | 390 kts | 209° |
| 2026-04-24 01:21 | 43.25114 | -70.68199 | 18278 ft | 394 kts | 210° |
| 2026-04-24 01:21 | 43.22446 | -70.69283 | 18969 ft | 397 kts | 210° |
| 2026-04-24 01:22 | 43.19783 | -70.70370 | 19609 ft | 402 kts | 211° |
| 2026-04-24 01:22 | 43.17086 | -70.71487 | 20091 ft | 406 kts | 215° |
| 2026-04-24 01:22 | 43.14640 | -70.73076 | 20676 ft | 394 kts | 224° |
| 2026-04-24 01:22 | 43.12196 | -70.74829 | 21245 ft | 399 kts | 223° |
| 2026-04-24 01:23 | 43.09725 | -70.76603 | 21902 ft | 401 kts | 223° |
| 2026-04-24 01:23 | 43.07276 | -70.78359 | 22561 ft | 403 kts | 224° |
| 2026-04-24 01:23 | 43.04789 | -70.80144 | 23116 ft | 407 kts | 224° |
| 2026-04-24 01:23 | 43.02254 | -70.81957 | 23662 ft | 412 kts | 224° |
| 2026-04-24 01:24 | 42.99714 | -70.83777 | 24116 ft | 419 kts | 223° |
| 2026-04-24 01:24 | 42.97114 | -70.85633 | 24688 ft | 421 kts | 223° |
| 2026-04-24 01:24 | 42.94516 | -70.87489 | 25244 ft | 424 kts | 223° |
| 2026-04-24 01:24 | 42.91909 | -70.89349 | 25712 ft | 429 kts | 223° |
| 2026-04-24 01:25 | 42.89272 | -70.91222 | 26374 ft | 428 kts | 223° |
| 2026-04-24 01:25 | 42.86762 | -70.93011 | 26792 ft | 433 kts | 223° |
| 2026-04-24 01:25 | 42.83910 | -70.95035 | 27358 ft | 436 kts | 221° |
| 2026-04-24 01:25 | 42.81266 | -70.96509 | 27793 ft | 453 kts | 214° |
| 2026-04-24 01:26 | 42.77910 | -70.98124 | 28261 ft | 457 kts | 214° |
| 2026-04-24 01:26 | 42.74921 | -70.99579 | 28557 ft | 464 kts | 214° |
| 2026-04-24 01:26 | 42.71879 | -71.01057 | 28962 ft | 467 kts | 214° |
| 2026-04-24 01:26 | 42.68812 | -71.02546 | 29441 ft | 469 kts | 214° |
| 2026-04-24 01:27 | 42.65734 | -71.04044 | 29923 ft | 470 kts | 214° |
| 2026-04-24 01:27 | 42.62653 | -71.05542 | 30321 ft | 473 kts | 214° |
| 2026-04-24 01:27 | 42.59516 | -71.07067 | 30656 ft | 478 kts | 214° |
| 2026-04-24 01:27 | 42.56400 | -71.08575 | 30982 ft | 483 kts | 214° |
| 2026-04-24 01:28 | 42.53252 | -71.10097 | 31528 ft | 482 kts | 213° |
| 2026-04-24 01:28 | 42.50077 | -71.11635 | 31971 ft | 484 kts | 213° |
| 2026-04-24 01:28 | 42.46901 | -71.13169 | 32425 ft | 485 kts | 213° |
| 2026-04-24 01:28 | 42.43761 | -71.14715 | 33022 ft | 477 kts | 217° |
| 2026-04-24 01:29 | 42.40857 | -71.16669 | 33629 ft | 456 kts | 226° |
| 2026-04-24 01:29 | 42.38311 | -71.19044 | 34074 ft | 443 kts | 232° |
| 2026-04-24 01:29 | 42.35832 | -71.21536 | 34570 ft | 441 kts | 231° |
| 2026-04-24 01:29 | 42.33388 | -71.23972 | 34917 ft | 442 kts | 231° |
| 2026-04-24 01:30 | 42.30924 | -71.26418 | 35267 ft | 442 kts | 231° |
| 2026-04-24 01:30 | 42.28444 | -71.28874 | 35669 ft | 440 kts | 231° |
| 2026-04-24 01:30 | 42.25990 | -71.31303 | 36053 ft | 438 kts | 231° |
| 2026-04-24 01:30 | 42.23543 | -71.33722 | 36396 ft | 437 kts | 231° |
| 2026-04-24 01:31 | 42.21081 | -71.36153 | 36792 ft | 437 kts | 230° |
| 2026-04-24 01:31 | 42.18665 | -71.38540 | 37237 ft | 436 kts | 230° |
| 2026-04-24 01:31 | 42.16227 | -71.40942 | 37686 ft | 434 kts | 230° |
| 2026-04-24 01:31 | 42.13773 | -71.43360 | 37996 ft | 434 kts | 230° |
| 2026-04-24 01:32 | 42.11370 | -71.45724 | 38330 ft | 433 kts | 230° |
| 2026-04-24 01:32 | 42.08935 | -71.48116 | 38674 ft | 433 kts | 230° |
| 2026-04-24 01:32 | 42.06521 | -71.50487 | 39018 ft | 432 kts | 230° |
| 2026-04-24 01:32 | 42.04091 | -71.52870 | 39382 ft | 430 kts | 230° |
| 2026-04-24 01:33 | 42.01693 | -71.55221 | 39782 ft | 428 kts | 230° |
| 2026-04-24 01:33 | 41.99295 | -71.57568 | 39896 ft | 421 kts | 230° |
| 2026-04-24 01:33 | 41.96936 | -71.59880 | 39943 ft | 427 kts | 230° |
| 2026-04-24 01:34 | 41.92057 | -71.64647 | 39945 ft | 439 kts | 229° |
| 2026-04-24 01:34 | 41.87052 | -71.69524 | 39935 ft | 454 kts | 229° |
| 2026-04-24 01:35 | 41.81967 | -71.74476 | 39934 ft | 456 kts | 228° |
| 2026-04-24 01:35 | 41.76769 | -71.79514 | 39910 ft | 457 kts | 229° |
| 2026-04-24 01:36 | 41.71634 | -71.84489 | 39931 ft | 456 kts | 229° |
| 2026-04-24 01:36 | 41.66460 | -71.89495 | 39954 ft | 460 kts | 229° |
| 2026-04-24 01:37 | 41.61483 | -71.94355 | 39960 ft | 456 kts | 229° |
| 2026-04-24 01:37 | 41.56189 | -71.99414 | 39915 ft | 456 kts | 231° |
| 2026-04-24 01:37 | 41.53876 | -72.02177 | 39934 ft | 442 kts | 237° |
| 2026-04-24 01:38 | 41.51650 | -72.05074 | 39927 ft | 442 kts | 237° |
| 2026-04-24 01:38 | 41.47242 | -72.10771 | 39928 ft | 446 kts | 237° |
| 2026-04-24 01:39 | 41.42800 | -72.16489 | 39924 ft | 442 kts | 237° |
| 2026-04-24 01:39 | 41.38390 | -72.22155 | 39922 ft | 442 kts | 237° |
| 2026-04-24 01:40 | 41.33946 | -72.27856 | 39929 ft | 446 kts | 237° |
| 2026-04-24 01:40 | 41.29503 | -72.33541 | 39932 ft | 444 kts | 237° |
| 2026-04-24 01:41 | 41.25046 | -72.39232 | 39928 ft | 443 kts | 237° |
| 2026-04-24 01:41 | 41.20590 | -72.44913 | 39951 ft | 446 kts | 237° |
| 2026-04-24 01:42 | 41.16155 | -72.50554 | 39950 ft | 445 kts | 237° |
| 2026-04-24 01:42 | 41.11682 | -72.56233 | 39931 ft | 444 kts | 237° |
| 2026-04-24 01:43 | 41.07227 | -72.61879 | 39936 ft | 446 kts | 237° |
| 2026-04-24 01:43 | 41.02799 | -72.67480 | 39945 ft | 443 kts | 236° |
| 2026-04-24 01:44 | 40.98355 | -72.73083 | 39943 ft | 444 kts | 236° |
| 2026-04-24 01:44 | 40.93879 | -72.78725 | 39939 ft | 443 kts | 235° |
| 2026-04-24 01:45 | 40.88984 | -72.83764 | 39940 ft | 455 kts | 228° |
| 2026-04-24 01:45 | 40.83916 | -72.88705 | 39922 ft | 455 kts | 228° |
| 2026-04-24 01:46 | 40.78850 | -72.93636 | 40043 ft | 453 kts | 228° |
| 2026-04-24 01:46 | 40.76309 | -72.96106 | 39926 ft | 452 kts | 228° |
| 2026-04-24 01:46 | 40.73758 | -72.98583 | 39920 ft | 451 kts | 228° |
| 2026-04-24 01:47 | 40.68724 | -73.03463 | 39922 ft | 454 kts | 228° |
| 2026-04-24 01:47 | 40.63634 | -73.08392 | 39925 ft | 454 kts | 228° |
| 2026-04-24 01:48 | 40.58555 | -73.13295 | 39930 ft | 449 kts | 228° |
| 2026-04-24 01:48 | 40.53533 | -73.18137 | 39926 ft | 449 kts | 227° |
| 2026-04-24 01:49 | 40.48503 | -73.22977 | 39933 ft | 448 kts | 227° |
| 2026-04-24 01:49 | 40.43438 | -73.27840 | 39940 ft | 449 kts | 227° |
| 2026-04-24 01:50 | 40.38390 | -73.32680 | 39940 ft | 453 kts | 227° |
| 2026-04-24 01:50 | 40.33325 | -73.37523 | 39938 ft | 451 kts | 227° |
| 2026-04-24 01:51 | 40.28308 | -73.42313 | 39931 ft | 447 kts | 227° |
| 2026-04-24 01:51 | 40.23276 | -73.47102 | 39925 ft | 449 kts | 227° |
| 2026-04-24 01:52 | 40.18201 | -73.51905 | 39924 ft | 451 kts | 226° |
| 2026-04-24 01:52 | 40.13142 | -73.56683 | 39920 ft | 450 kts | 226° |
| 2026-04-24 01:53 | 40.08096 | -73.61443 | 39921 ft | 448 kts | 226° |
| 2026-04-24 01:53 | 40.03009 | -73.66232 | 39940 ft | 452 kts | 225° |
| 2026-04-24 01:54 | 39.97956 | -73.70974 | 39934 ft | 452 kts | 224° |
| 2026-04-24 01:54 | 39.92666 | -73.74473 | 39957 ft | 468 kts | 211° |
| 2026-04-24 01:55 | 39.86182 | -73.77908 | 39924 ft | 471 kts | 211° |
| 2026-04-24 01:55 | 39.80188 | -73.81100 | 39924 ft | 466 kts | 211° |
| 2026-04-24 01:56 | 39.74204 | -73.84284 | 39933 ft | 468 kts | 211° |
| 2026-04-24 01:56 | 39.68117 | -73.87514 | 39934 ft | 469 kts | 211° |
| 2026-04-24 01:57 | 39.62055 | -73.90725 | 39940 ft | 467 kts | 211° |
| 2026-04-24 01:57 | 39.56055 | -73.93898 | 39943 ft | 469 kts | 211° |
| 2026-04-24 01:58 | 39.50067 | -73.97058 | 39944 ft | 469 kts | 211° |
| 2026-04-24 01:58 | 39.44010 | -74.00250 | 39945 ft | 467 kts | 211° |
| 2026-04-24 01:59 | 39.38635 | -74.04507 | 39952 ft | 447 kts | 229° |
| 2026-04-24 01:59 | 39.33909 | -74.09714 | 39948 ft | 445 kts | 229° |
| 2026-04-24 02:00 | 39.29194 | -74.14861 | 39945 ft | 446 kts | 229° |
| 2026-04-24 02:00 | 39.24464 | -74.20010 | 39939 ft | 445 kts | 229° |
| 2026-04-24 02:01 | 39.19723 | -74.25166 | 39938 ft | 448 kts | 229° |
| 2026-04-24 02:01 | 39.14978 | -74.30314 | 39938 ft | 448 kts | 228° |
| 2026-04-24 02:02 | 39.10202 | -74.35485 | 39935 ft | 449 kts | 228° |
| 2026-04-24 02:02 | 39.05429 | -74.40644 | 39940 ft | 450 kts | 228° |
| 2026-04-24 02:03 | 39.00096 | -74.46397 | 39936 ft | 449 kts | 228° |
| 2026-04-24 02:03 | 38.93475 | -74.53550 | 39927 ft | 449 kts | 230° |
| 2026-04-24 02:04 | 38.88920 | -74.58918 | 39926 ft | 446 kts | 230° |
| 2026-04-24 02:04 | 38.84340 | -74.64284 | 39930 ft | 447 kts | 230° |
| 2026-04-24 02:05 | 38.79741 | -74.69656 | 39942 ft | 447 kts | 230° |
| 2026-04-24 02:05 | 38.75155 | -74.75005 | 39939 ft | 448 kts | 229° |
| 2026-04-24 02:06 | 38.70320 | -74.80067 | 39933 ft | 450 kts | 226° |
| 2026-04-24 02:06 | 38.65453 | -74.85133 | 39944 ft | 452 kts | 226° |
| 2026-04-24 02:07 | 38.60572 | -74.90208 | 39945 ft | 452 kts | 226° |
| 2026-04-24 02:07 | 38.55711 | -74.95253 | 39945 ft | 451 kts | 226° |
| 2026-04-24 02:08 | 38.50914 | -75.00373 | 39946 ft | 448 kts | 229° |
| 2026-04-24 02:08 | 38.46236 | -75.05589 | 39944 ft | 451 kts | 225° |
| 2026-04-24 02:09 | 38.45128 | -75.06654 | 39944 ft | 453 kts | 224° |
| 2026-04-24 02:09 | 38.36325 | -75.14955 | 39945 ft | 453 kts | 224° |
| 2026-04-24 02:10 | 38.31280 | -75.19740 | 39949 ft | 453 kts | 224° |
| 2026-04-24 02:10 | 38.26216 | -75.24535 | 39954 ft | 452 kts | 224° |
| 2026-04-24 02:11 | 38.21190 | -75.29286 | 39952 ft | 453 kts | 224° |
| 2026-04-24 02:11 | 38.18035 | -75.32264 | 39950 ft | 451 kts | 224° |
| 2026-04-24 02:12 | 38.11662 | -75.38271 | 39942 ft | 451 kts | 224° |
| 2026-04-24 02:12 | 38.06119 | -75.43484 | 39951 ft | 453 kts | 223° |
| 2026-04-24 02:13 | 38.00965 | -75.48046 | 39961 ft | 453 kts | 221° |
| 2026-04-24 02:13 | 37.95775 | -75.52570 | 39963 ft | 454 kts | 221° |
| 2026-04-24 02:14 | 37.90568 | -75.57102 | 39962 ft | 454 kts | 221° |
| 2026-04-24 02:14 | 37.85331 | -75.61654 | 39950 ft | 455 kts | 221° |
| 2026-04-24 02:15 | 37.81438 | -75.64784 | 39998 ft | 459 kts | 217° |
| 2026-04-24 02:15 | 37.74483 | -75.69960 | 39955 ft | 459 kts | 217° |
| 2026-04-24 02:16 | 37.69019 | -75.74065 | 39959 ft | 459 kts | 217° |
| 2026-04-24 02:16 | 37.63525 | -75.78188 | 39958 ft | 457 kts | 217° |
| 2026-04-24 02:17 | 37.58041 | -75.82294 | 39956 ft | 458 kts | 217° |
| 2026-04-24 02:17 | 37.52642 | -75.86512 | 39950 ft | 453 kts | 224° |
| 2026-04-24 02:18 | 37.47773 | -75.91437 | 39956 ft | 451 kts | 225° |
| 2026-04-24 02:18 | 37.42892 | -75.96367 | 39953 ft | 450 kts | 225° |
| 2026-04-24 02:19 | 37.37985 | -76.01313 | 39952 ft | 451 kts | 225° |
| 2026-04-24 02:19 | 37.33113 | -76.06214 | 39954 ft | 450 kts | 225° |
| 2026-04-24 02:20 | 37.28246 | -76.11101 | 39953 ft | 450 kts | 225° |
| 2026-04-24 02:20 | 37.23331 | -76.16029 | 39960 ft | 451 kts | 225° |
| 2026-04-24 02:21 | 37.18431 | -76.20933 | 39966 ft | 450 kts | 224° |
| 2026-04-24 02:21 | 37.13565 | -76.25794 | 39962 ft | 451 kts | 224° |
| 2026-04-24 02:22 | 37.08654 | -76.30692 | 39964 ft | 451 kts | 224° |
| 2026-04-24 02:22 | 37.03744 | -76.35581 | 39966 ft | 451 kts | 224° |
| 2026-04-24 02:23 | 36.98840 | -76.40456 | 39966 ft | 451 kts | 224° |
| 2026-04-24 02:23 | 36.93961 | -76.45297 | 39967 ft | 450 kts | 224° |
| 2026-04-24 02:24 | 36.89077 | -76.50135 | 39956 ft | 451 kts | 224° |
| 2026-04-24 02:24 | 36.84179 | -76.54981 | 39946 ft | 451 kts | 224° |
| 2026-04-24 02:25 | 36.79260 | -76.59836 | 39949 ft | 451 kts | 224° |
| 2026-04-24 02:25 | 36.74327 | -76.64699 | 39954 ft | 450 kts | 224° |
| 2026-04-24 02:26 | 36.69420 | -76.69529 | 39953 ft | 451 kts | 223° |
| 2026-04-24 02:26 | 36.64531 | -76.74331 | 39956 ft | 451 kts | 223° |
| 2026-04-24 02:27 | 36.59604 | -76.79163 | 39954 ft | 450 kts | 223° |
| 2026-04-24 02:27 | 36.54701 | -76.83964 | 39958 ft | 450 kts | 223° |
| 2026-04-24 02:28 | 36.49761 | -76.88792 | 39944 ft | 450 kts | 223° |
| 2026-04-24 02:28 | 36.44856 | -76.93578 | 39951 ft | 451 kts | 223° |
| 2026-04-24 02:29 | 36.39909 | -76.98398 | 39959 ft | 451 kts | 223° |
| 2026-04-24 02:29 | 36.34959 | -77.03212 | 39959 ft | 451 kts | 223° |
| 2026-04-24 02:30 | 36.30018 | -77.08009 | 39965 ft | 451 kts | 223° |
| 2026-04-24 02:30 | 36.25238 | -77.12643 | 39955 ft | 452 kts | 222° |
| 2026-04-24 02:31 | 36.20155 | -77.17564 | 39956 ft | 451 kts | 223° |
| 2026-04-24 02:31 | 36.15229 | -77.22323 | 39958 ft | 451 kts | 223° |
| 2026-04-24 02:32 | 36.10302 | -77.27074 | 39960 ft | 450 kts | 223° |
| 2026-04-24 02:32 | 36.05359 | -77.31834 | 39955 ft | 451 kts | 223° |
| 2026-04-24 02:33 | 36.01869 | -77.35212 | 39956 ft | 452 kts | 223° |
| 2026-04-24 02:33 | 35.95478 | -77.41399 | 39958 ft | 452 kts | 223° |
| 2026-04-24 02:34 | 35.90513 | -77.46194 | 39967 ft | 451 kts | 222° |
| 2026-04-24 02:34 | 35.85614 | -77.50917 | 39955 ft | 450 kts | 222° |
| 2026-04-24 02:35 | 35.80710 | -77.55647 | 39972 ft | 451 kts | 222° |
| 2026-04-24 02:35 | 35.75742 | -77.60418 | 39959 ft | 451 kts | 222° |
| 2026-04-24 02:36 | 35.70755 | -77.65204 | 39969 ft | 451 kts | 221° |
| 2026-04-24 02:36 | 35.66251 | -77.69521 | 39979 ft | 452 kts | 222° |
| 2026-04-24 02:37 | 35.61131 | -77.74419 | 39981 ft | 452 kts | 221° |
| 2026-04-24 02:37 | 35.55905 | -77.79410 | 39984 ft | 453 kts | 221° |
| 2026-04-24 02:38 | 35.50944 | -77.84140 | 39981 ft | 452 kts | 221° |
| 2026-04-24 02:38 | 35.45995 | -77.88852 | 39986 ft | 451 kts | 221° |
| 2026-04-24 02:39 | 35.41022 | -77.93578 | 39991 ft | 451 kts | 221° |
| 2026-04-24 02:39 | 35.36086 | -77.98262 | 39998 ft | 452 kts | 221° |
| 2026-04-24 02:40 | 35.31132 | -78.02958 | 39990 ft | 452 kts | 221° |
| 2026-04-24 02:40 | 35.26147 | -78.07673 | 39995 ft | 454 kts | 221° |
| 2026-04-24 02:41 | 35.21162 | -78.12381 | 39992 ft | 454 kts | 221° |
| 2026-04-24 02:41 | 35.16151 | -78.17106 | 39997 ft | 453 kts | 221° |
| 2026-04-24 02:42 | 35.11180 | -78.21786 | 40003 ft | 453 kts | 221° |
| 2026-04-24 02:42 | 35.06171 | -78.26495 | 40007 ft | 454 kts | 221° |
| 2026-04-24 02:43 | 35.01196 | -78.31162 | 40011 ft | 454 kts | 221° |
| 2026-04-24 02:43 | 34.96170 | -78.35873 | 40015 ft | 455 kts | 221° |
| 2026-04-24 02:44 | 34.91184 | -78.40543 | 40010 ft | 455 kts | 221° |
| 2026-04-24 02:44 | 34.86364 | -78.45044 | 39999 ft | 454 kts | 221° |
| 2026-04-24 02:45 | 34.81139 | -78.49918 | 39997 ft | 455 kts | 221° |
| 2026-04-24 02:45 | 34.76121 | -78.54591 | 39999 ft | 456 kts | 221° |
| 2026-04-24 02:46 | 34.71070 | -78.59289 | 40004 ft | 457 kts | 221° |
| 2026-04-24 02:46 | 34.66035 | -78.63963 | 40015 ft | 456 kts | 221° |
| 2026-04-24 02:47 | 34.61000 | -78.68630 | 40012 ft | 456 kts | 220° |
| 2026-04-24 02:47 | 34.55953 | -78.73302 | 40007 ft | 455 kts | 220° |
| 2026-04-24 02:48 | 34.50940 | -78.77937 | 40011 ft | 456 kts | 220° |
| 2026-04-24 02:48 | 34.45896 | -78.82575 | 40001 ft | 457 kts | 220° |
| 2026-04-24 02:49 | 34.40707 | -78.87099 | 40008 ft | 459 kts | 218° |
| 2026-04-24 02:49 | 34.35466 | -78.91515 | 40014 ft | 459 kts | 218° |
| 2026-04-24 02:50 | 34.34241 | -78.92565 | 40060 ft | 458 kts | 218° |
| 2026-04-24 02:51 | 34.19461 | -79.04980 | 40005 ft | 458 kts | 218° |
| 2026-04-24 02:51 | 34.14239 | -79.09360 | 40007 ft | 458 kts | 218° |
| 2026-04-24 02:52 | 34.09013 | -79.13737 | 40014 ft | 458 kts | 218° |
| 2026-04-24 02:52 | 34.03755 | -79.18134 | 40023 ft | 458 kts | 218° |
| 2026-04-24 02:53 | 33.98545 | -79.22488 | 40028 ft | 459 kts | 218° |
| 2026-04-24 02:53 | 33.93301 | -79.26864 | 40031 ft | 459 kts | 218° |
| 2026-04-24 02:54 | 33.88061 | -79.31229 | 40012 ft | 459 kts | 218° |
| 2026-04-24 02:54 | 33.82836 | -79.35579 | 40022 ft | 457 kts | 218° |
| 2026-04-24 02:55 | 33.77586 | -79.39940 | 40017 ft | 457 kts | 217° |
| 2026-04-24 02:55 | 33.72353 | -79.44280 | 40029 ft | 456 kts | 218° |
| 2026-04-24 02:56 | 33.67130 | -79.48606 | 40033 ft | 457 kts | 217° |
| 2026-04-24 02:56 | 33.61907 | -79.52925 | 40041 ft | 457 kts | 218° |
| 2026-04-24 02:57 | 33.56673 | -79.57245 | 40037 ft | 458 kts | 218° |
| 2026-04-24 02:57 | 33.51432 | -79.61567 | 40048 ft | 457 kts | 218° |
| 2026-04-24 02:58 | 33.46204 | -79.65871 | 40054 ft | 456 kts | 217° |
| 2026-04-24 02:58 | 33.40997 | -79.70154 | 40038 ft | 456 kts | 217° |
| 2026-04-24 02:59 | 33.35784 | -79.74432 | 40047 ft | 455 kts | 217° |
| 2026-04-24 02:59 | 33.30540 | -79.78727 | 40051 ft | 456 kts | 217° |
| 2026-04-24 03:00 | 33.25321 | -79.82995 | 40056 ft | 456 kts | 217° |
| 2026-04-24 03:00 | 33.20057 | -79.87295 | 40060 ft | 456 kts | 217° |
| 2026-04-24 03:01 | 33.14835 | -79.91554 | 40059 ft | 456 kts | 217° |
| 2026-04-24 03:01 | 33.09595 | -79.95821 | 40061 ft | 455 kts | 217° |
| 2026-04-24 03:02 | 33.04376 | -80.00065 | 40062 ft | 455 kts | 217° |
| 2026-04-24 03:02 | 32.99134 | -80.04321 | 40070 ft | 454 kts | 217° |
| 2026-04-24 03:03 | 32.93931 | -80.08540 | 40076 ft | 454 kts | 217° |
| 2026-04-24 03:03 | 32.88710 | -80.12767 | 40074 ft | 453 kts | 217° |
| 2026-04-24 03:04 | 32.83513 | -80.16971 | 40075 ft | 454 kts | 217° |
| 2026-04-24 03:04 | 32.78297 | -80.21182 | 40076 ft | 453 kts | 217° |
| 2026-04-24 03:05 | 32.73111 | -80.25362 | 40076 ft | 453 kts | 217° |
| 2026-04-24 03:05 | 32.67880 | -80.29572 | 40076 ft | 452 kts | 216° |
| 2026-04-24 03:06 | 32.62693 | -80.33742 | 40067 ft | 453 kts | 217° |
| 2026-04-24 03:06 | 32.57447 | -80.37945 | 40055 ft | 454 kts | 214° |
| 2026-04-24 03:07 | 32.51971 | -80.41621 | 40055 ft | 455 kts | 212° |
| 2026-04-24 03:07 | 32.46483 | -80.45319 | 40050 ft | 454 kts | 212° |
| 2026-04-24 03:08 | 32.38264 | -80.50858 | 40051 ft | 453 kts | 212° |
| 2026-04-24 03:09 | 32.32768 | -80.54557 | 40062 ft | 453 kts | 212° |
| 2026-04-24 03:09 | 32.27289 | -80.58239 | 40065 ft | 453 kts | 212° |
| 2026-04-24 03:10 | 32.21841 | -80.61894 | 40069 ft | 454 kts | 212° |
| 2026-04-24 03:10 | 32.16334 | -80.65585 | 40069 ft | 453 kts | 211° |
| 2026-04-24 03:11 | 32.10842 | -80.69259 | 40059 ft | 453 kts | 211° |
| 2026-04-24 03:11 | 32.05372 | -80.72915 | 40059 ft | 452 kts | 211° |
| 2026-04-24 03:12 | 31.99921 | -80.76552 | 40058 ft | 451 kts | 211° |
| 2026-04-24 03:12 | 31.94454 | -80.80196 | 40057 ft | 453 kts | 211° |
| 2026-04-24 03:13 | 31.88942 | -80.83864 | 40055 ft | 453 kts | 211° |
| 2026-04-24 03:13 | 31.83468 | -80.87500 | 40050 ft | 453 kts | 211° |
| 2026-04-24 03:14 | 31.77992 | -80.91134 | 40052 ft | 453 kts | 211° |
| 2026-04-24 03:14 | 31.72495 | -80.94777 | 40060 ft | 452 kts | 211° |
| 2026-04-24 03:15 | 31.67034 | -80.98391 | 40058 ft | 451 kts | 211° |
| 2026-04-24 03:15 | 31.61581 | -81.01995 | 40062 ft | 452 kts | 211° |
| 2026-04-24 03:16 | 31.56044 | -81.05540 | 40063 ft | 453 kts | 209° |
| 2026-04-24 03:16 | 31.50475 | -81.08949 | 40061 ft | 453 kts | 209° |
| 2026-04-24 03:17 | 31.44875 | -81.12380 | 40064 ft | 452 kts | 209° |
| 2026-04-24 03:17 | 31.39304 | -81.15788 | 40066 ft | 452 kts | 209° |
| 2026-04-24 03:18 | 31.33686 | -81.19149 | 40062 ft | 453 kts | 208° |
| 2026-04-24 03:18 | 31.28068 | -81.22485 | 40069 ft | 453 kts | 208° |
| 2026-04-24 03:19 | 31.22454 | -81.25815 | 40070 ft | 453 kts | 208° |
| 2026-04-24 03:19 | 31.16466 | -81.28075 | 40088 ft | 456 kts | 189° |
| 2026-04-24 03:20 | 31.10120 | -81.28275 | 40070 ft | 457 kts | 180° |
| 2026-04-24 03:20 | 31.06997 | -81.28244 | 40056 ft | 444 kts | 181° |
| 2026-04-24 03:20 | 31.03942 | -81.28230 | 40062 ft | 436 kts | 181° |
| 2026-04-24 03:21 | 30.97831 | -81.28211 | 39996 ft | 440 kts | 181° |
| 2026-04-24 03:21 | 30.94752 | -81.28204 | 39482 ft | 442 kts | 180° |
| 2026-04-24 03:21 | 30.91709 | -81.28195 | 39005 ft | 441 kts | 181° |
| 2026-04-24 03:21 | 30.88623 | -81.28187 | 38513 ft | 440 kts | 181° |
| 2026-04-24 03:22 | 30.85547 | -81.28179 | 38024 ft | 441 kts | 181° |
| 2026-04-24 03:22 | 30.82492 | -81.28172 | 37533 ft | 443 kts | 181° |
| 2026-04-24 03:22 | 30.79414 | -81.28164 | 37044 ft | 444 kts | 181° |
| 2026-04-24 03:22 | 30.76313 | -81.28155 | 36551 ft | 445 kts | 181° |
| 2026-04-24 03:23 | 30.73223 | -81.28148 | 36073 ft | 447 kts | 181° |
| 2026-04-24 03:23 | 30.70081 | -81.28140 | 35574 ft | 449 kts | 181° |
| 2026-04-24 03:23 | 30.66970 | -81.28132 | 35085 ft | 452 kts | 181° |
| 2026-04-24 03:23 | 30.63829 | -81.28123 | 34585 ft | 454 kts | 181° |
| 2026-04-24 03:24 | 30.60641 | -81.28115 | 34081 ft | 456 kts | 181° |
| 2026-04-24 03:24 | 30.54296 | -81.27670 | 34026 ft | 459 kts | 178° |
| 2026-04-24 03:24 | 30.51075 | -81.27423 | 33529 ft | 463 kts | 178° |
| 2026-04-24 03:25 | 30.47862 | -81.27180 | 33049 ft | 461 kts | 179° |
| 2026-04-24 03:25 | 30.44686 | -81.26940 | 32547 ft | 458 kts | 179° |
| 2026-04-24 03:25 | 30.41509 | -81.26702 | 32039 ft | 457 kts | 179° |
| 2026-04-24 03:25 | 30.38358 | -81.26465 | 31537 ft | 456 kts | 178° |
| 2026-04-24 03:26 | 30.35194 | -81.26228 | 31032 ft | 455 kts | 178° |
| 2026-04-24 03:26 | 30.32046 | -81.25991 | 30525 ft | 447 kts | 178° |
| 2026-04-24 03:26 | 30.28980 | -81.25761 | 30030 ft | 436 kts | 177° |
| 2026-04-24 03:26 | 30.25991 | -81.25537 | 29551 ft | 424 kts | 177° |
| 2026-04-24 03:27 | 30.23080 | -81.25319 | 29085 ft | 413 kts | 177° |
| 2026-04-24 03:27 | 30.20266 | -81.25108 | 28631 ft | 403 kts | 177° |
| 2026-04-24 03:27 | 30.17467 | -81.24898 | 28186 ft | 393 kts | 177° |
| 2026-04-24 03:27 | 30.14767 | -81.24696 | 27755 ft | 384 kts | 177° |
| 2026-04-24 03:28 | 30.12149 | -81.24500 | 27338 ft | 375 kts | 178° |
| 2026-04-24 03:28 | 30.09573 | -81.24307 | 26929 ft | 366 kts | 178° |
| 2026-04-24 03:28 | 30.07042 | -81.24119 | 26526 ft | 358 kts | 178° |
| 2026-04-24 03:28 | 30.04597 | -81.23937 | 26137 ft | 351 kts | 178° |
| 2026-04-24 03:29 | 30.02181 | -81.23756 | 25754 ft | 343 kts | 178° |
| 2026-04-24 03:29 | 29.99813 | -81.23579 | 25379 ft | 336 kts | 178° |
| 2026-04-24 03:29 | 29.97520 | -81.23408 | 25012 ft | 329 kts | 178° |
| 2026-04-24 03:29 | 29.95258 | -81.23240 | 24654 ft | 322 kts | 178° |
| 2026-04-24 03:30 | 29.93028 | -81.23074 | 24295 ft | 315 kts | 178° |
| 2026-04-24 03:30 | 29.90872 | -81.22913 | 23952 ft | 309 kts | 179° |
| 2026-04-24 03:30 | 29.88751 | -81.22755 | 23612 ft | 303 kts | 178° |
| 2026-04-24 03:30 | 29.86632 | -81.22601 | 23274 ft | 297 kts | 179° |
| 2026-04-24 03:31 | 29.84691 | -81.22456 | 22967 ft | 291 kts | 179° |
| 2026-04-24 03:31 | 29.82586 | -81.22301 | 22633 ft | 286 kts | 179° |
| 2026-04-24 03:31 | 29.80635 | -81.22156 | 22326 ft | 280 kts | 179° |
| 2026-04-24 03:31 | 29.78702 | -81.22011 | 22080 ft | 272 kts | 179° |
| 2026-04-24 03:32 | 29.76825 | -81.21872 | 21720 ft | 270 kts | 179° |
| 2026-04-24 03:32 | 29.74954 | -81.21733 | 21425 ft | 267 kts | 179° |
| 2026-04-24 03:32 | 29.73010 | -81.21591 | 21175 ft | 298 kts | 178° |
| 2026-04-24 03:32 | 29.70791 | -81.21426 | 20848 ft | 336 kts | 178° |
| 2026-04-24 03:33 | 29.68335 | -81.21217 | 20491 ft | 370 kts | 177° |
| 2026-04-24 03:33 | 29.65711 | -81.20990 | 20043 ft | 380 kts | 177° |
| 2026-04-24 03:33 | 29.63095 | -81.20765 | 19614 ft | 378 kts | 177° |
| 2026-04-24 03:33 | 29.60477 | -81.20540 | 19193 ft | 374 kts | 177° |
| 2026-04-24 03:34 | 29.57909 | -81.20319 | 18785 ft | 370 kts | 177° |
| 2026-04-24 03:34 | 29.55325 | -81.20097 | 18374 ft | 368 kts | 177° |
| 2026-04-24 03:34 | 29.52766 | -81.19878 | 17889 ft | 366 kts | 177° |
| 2026-04-24 03:34 | 29.50230 | -81.19662 | 17915 ft | 365 kts | 177° |
| 2026-04-24 03:35 | 29.47671 | -81.19443 | 17917 ft | 366 kts | 177° |
| 2026-04-24 03:35 | 29.45134 | -81.19228 | 17915 ft | 367 kts | 177° |
| 2026-04-24 03:35 | 29.42563 | -81.19008 | 17685 ft | 369 kts | 177° |
| 2026-04-24 03:35 | 29.40008 | -81.18790 | 17297 ft | 366 kts | 177° |
| 2026-04-24 03:36 | 29.37474 | -81.18573 | 16893 ft | 362 kts | 176° |
| 2026-04-24 03:36 | 29.34948 | -81.18357 | 16491 ft | 358 kts | 177° |
| 2026-04-24 03:36 | 29.32487 | -81.18147 | 16099 ft | 355 kts | 176° |
| 2026-04-24 03:36 | 29.30032 | -81.17938 | 15706 ft | 353 kts | 176° |
| 2026-04-24 03:37 | 29.27596 | -81.17725 | 15343 ft | 351 kts | 176° |
| 2026-04-24 03:37 | 29.25147 | -81.17509 | 14957 ft | 349 kts | 176° |
| 2026-04-24 03:37 | 29.22720 | -81.17295 | 14567 ft | 347 kts | 176° |
| 2026-04-24 03:37 | 29.20336 | -81.17085 | 14189 ft | 345 kts | 176° |
| 2026-04-24 03:38 | 29.17972 | -81.16576 | 13816 ft | 341 kts | 161° |
| 2026-04-24 03:38 | 29.15790 | -81.15665 | 13454 ft | 329 kts | 160° |
| 2026-04-24 03:38 | 29.13682 | -81.14769 | 13091 ft | 319 kts | 160° |
| 2026-04-24 03:38 | 29.11638 | -81.13898 | 12743 ft | 309 kts | 159° |
| 2026-04-24 03:39 | 29.09649 | -81.13049 | 12406 ft | 300 kts | 159° |
| 2026-04-24 03:39 | 29.07701 | -81.12219 | 12078 ft | 295 kts | 159° |
| 2026-04-24 03:39 | 29.05787 | -81.11403 | 11760 ft | 295 kts | 159° |
| 2026-04-24 03:39 | 29.03840 | -81.10606 | 11495 ft | 294 kts | 161° |
| 2026-04-24 03:40 | 29.01903 | -81.09872 | 11198 ft | 295 kts | 161° |
| 2026-04-24 03:40 | 28.99936 | -81.09126 | 10872 ft | 294 kts | 161° |
| 2026-04-24 03:40 | 28.97995 | -81.08392 | 10542 ft | 293 kts | 162° |
| 2026-04-24 03:40 | 28.96007 | -81.08003 | 10404 ft | 289 kts | 173° |
| 2026-04-24 03:41 | 28.93976 | -81.07758 | 10418 ft | 291 kts | 173° |
| 2026-04-24 03:41 | 28.91970 | -81.07518 | 10425 ft | 293 kts | 173° |
| 2026-04-24 03:41 | 28.89948 | -81.07278 | 10429 ft | 294 kts | 173° |
| 2026-04-24 03:41 | 28.87892 | -81.07529 | 10424 ft | 294 kts | 202° |
| 2026-04-24 03:42 | 28.86359 | -81.08555 | 10441 ft | 277 kts | 214° |
| 2026-04-24 03:42 | 28.85060 | -81.09570 | 10418 ft | 263 kts | 214° |
| 2026-04-24 03:42 | 28.83586 | -81.10729 | 10376 ft | 248 kts | 214° |
| 2026-04-24 03:42 | 28.82273 | -81.11768 | 10357 ft | 245 kts | 214° |
| 2026-04-24 03:43 | 28.80844 | -81.12899 | 9985 ft | 251 kts | 214° |
| 2026-04-24 03:43 | 28.79421 | -81.14027 | 9458 ft | 248 kts | 214° |
| 2026-04-24 03:43 | 28.78023 | -81.15136 | 8888 ft | 246 kts | 214° |
| 2026-04-24 03:43 | 28.76684 | -81.16331 | 8308 ft | 244 kts | 221° |
| 2026-04-24 03:44 | 28.75420 | -81.17609 | 7722 ft | 244 kts | 222° |
| 2026-04-24 03:44 | 28.74152 | -81.18890 | 7136 ft | 243 kts | 222° |
| 2026-04-24 03:44 | 28.72891 | -81.20166 | 6569 ft | 241 kts | 222° |
| 2026-04-24 03:44 | 28.71647 | -81.21423 | 6008 ft | 240 kts | 222° |
| 2026-04-24 03:45 | 28.70407 | -81.22678 | 5478 ft | 237 kts | 221° |
| 2026-04-24 03:45 | 28.69186 | -81.23912 | 5065 ft | 231 kts | 221° |
| 2026-04-24 03:45 | 28.67994 | -81.25116 | 4596 ft | 227 kts | 220° |
| 2026-04-24 03:45 | 28.66804 | -81.26318 | 4074 ft | 227 kts | 220° |
| 2026-04-24 03:46 | 28.65623 | -81.27509 | 3975 ft | 226 kts | 220° |
| 2026-04-24 03:46 | 28.64245 | -81.28348 | 3982 ft | 223 kts | 185° |
| 2026-04-24 03:46 | 28.62689 | -81.28455 | 3741 ft | 224 kts | 178° |
| 2026-04-24 03:46 | 28.61168 | -81.28431 | 3459 ft | 208 kts | 177° |
| 2026-04-24 03:47 | 28.59758 | -81.28410 | 3175 ft | 202 kts | 178° |
| 2026-04-24 03:47 | 28.58340 | -81.28398 | 2868 ft | 199 kts | 177° |
| 2026-04-24 03:47 | 28.56961 | -81.28384 | 2598 ft | 194 kts | 176° |
| 2026-04-24 03:47 | 28.55623 | -81.28369 | 2315 ft | 184 kts | 176° |
| 2026-04-24 03:48 | 28.54396 | -81.28359 | 2047 ft | 167 kts | 175° |
| 2026-04-24 03:48 | 28.53277 | -81.28349 | 1849 ft | 149 kts | 175° |
| 2026-04-24 03:48 | 28.52274 | -81.28339 | 1655 ft | 142 kts | 175° |
| 2026-04-24 03:48 | 28.51281 | -81.28327 | 1461 ft | 140 kts | 175° |
| 2026-04-24 03:49 | 28.50334 | -81.28318 | 1268 ft | 135 kts | 175° |
| 2026-04-24 03:49 | 28.49706 | -81.28310 | 1151 ft | 135 kts | 175° |
| 2026-04-24 03:49 | 28.48486 | -81.28299 | 912 ft | 127 kts | 175° |
| 2026-04-24 03:49 | 28.47608 | -81.28290 | 752 ft | 127 kts | 176° |
| 2026-04-24 03:50 | 28.46720 | -81.28281 | 590 ft | 127 kts | 176° |
| 2026-04-24 03:50 | 28.45822 | -81.28271 | 422 ft | 128 kts | 177° |
| 2026-04-24 03:50 | 28.44927 | -81.28255 | 243 ft | 128 kts | 177° |
| 2026-04-24 03:50 | 28.44034 | -81.28254 | 107 ft | 127 kts | 176° |
| 2026-04-24 03:51 | 28.43266 | -81.28243 | 104 ft | 87 kts | 178° |
| 2026-04-24 03:51 | 28.42809 | -81.28237 | 104 ft | 49 kts | 179° |
| 2026-04-24 03:51 | 28.42515 | -81.28337 | 104 ft | 39 kts | 241° |
| 2026-04-24 03:51 | 28.42460 | -81.28559 | 104 ft | 28 kts | 249° |
| 2026-04-24 03:52 | 28.42393 | -81.28766 | 104 ft | 27 kts | 250° |
| 2026-04-24 03:52 | 28.42326 | -81.28971 | 104 ft | 27 kts | 249° |
| 2026-04-24 03:52 | 28.42287 | -81.29185 | 104 ft | 24 kts | 267° |
| 2026-04-24 03:52 | 28.42349 | -81.29260 | 104 ft | 12 kts | 318° |
| 2026-04-24 03:53 | 28.42366 | -81.29381 | 104 ft | 21 kts | 271° |
| 2026-04-24 03:53 | 28.42363 | -81.29565 | 104 ft | 23 kts | 271° |
| 2026-04-24 03:53 | 28.42363 | -81.29755 | 104 ft | 23 kts | 269° |
| 2026-04-24 03:53 | 28.42361 | -81.29942 | 104 ft | 24 kts | 267° |
| 2026-04-24 03:54 | 28.42362 | -81.30135 | 104 ft | 24 kts | 267° |
| 2026-04-24 03:54 | 28.42355 | -81.30321 | 104 ft | 23 kts | 274° |
| 2026-04-24 03:54 | 28.42348 | -81.30518 | 114 ft | 24 kts | 266° |
| 2026-04-24 03:54 | 28.42332 | -81.30717 | 120 ft | 27 kts | 263° |
| 2026-04-24 03:55 | 28.42317 | -81.30970 | 104 ft | 33 kts | 268° |
| 2026-04-24 03:55 | 28.42348 | -81.31229 | 104 ft | 32 kts | 272° |
| 2026-04-24 03:55 | 28.42414 | -81.31268 | 104 ft | 14 kts | 31° |
| 2026-04-24 03:55 | 28.42526 | -81.31192 | 104 ft | 21 kts | 33° |
| 2026-04-24 03:56 | 28.42648 | -81.31122 | 104 ft | 7 kts | 351° |
| 2026-04-24 03:56 | 28.42675 | -81.31129 | 104 ft | 5 kts | 346° |
| 2026-04-24 03:56 | 28.42755 | -81.31181 | 104 ft | 17 kts | 306° |
| 2026-04-24 03:56 | 28.42787 | -81.31251 | 104 ft | 4 kts | 258° |
| 2026-04-24 03:57 | 28.42761 | -81.31279 | 104 ft | 5 kts | 214° |
| 2026-04-24 03:57 | 28.42746 | -81.31290 | 104 ft | 0 kts | 213° |